sensor_id;sensor_type;location;lat;lon;timestamp;temperature;humidity
68177;DHT22;56478;50.982;7.032;2022-08-26T00:02:20;24.21;54.37
68177;DHT22;56478;50.982;7.032;2022-08-26T00:04:46;24.17;54.86
68177;DHT22;56478;50.982;7.032;2022-08-26T00:07:11;24.20;54.37
68177;DHT22;56478;50.982;7.032;2022-08-26T00:09:37;24.10;55.67
68177;DHT22;56478;50.982;7.032;2022-08-26T00:12:02;23.97;55.97
68177;DHT22;56478;50.982;7.032;2022-08-26T00:14:28;23.98;56.12
68177;DHT22;56478;50.982;7.032;2022-08-26T00:16:55;23.90;56.43
68177;DHT22;56478;50.982;7.032;2022-08-26T00:19:21;23.88;56.22
68177;DHT22;56478;50.982;7.032;2022-08-26T00:21:46;23.88;56.36
68177;DHT22;56478;50.982;7.032;2022-08-26T00:24:12;23.77;56.98
68177;DHT22;56478;50.982;7.032;2022-08-26T00:26:38;23.74;57.05
68177;DHT22;56478;50.982;7.032;2022-08-26T00:29:04;23.80;56.76
68177;DHT22;56478;50.982;7.032;2022-08-26T00:31:29;23.77;56.10
68177;DHT22;56478;50.982;7.032;2022-08-26T00:33:55;23.80;56.06
68177;DHT22;56478;50.982;7.032;2022-08-26T00:36:20;23.86;55.43
68177;DHT22;56478;50.982;7.032;2022-08-26T00:38:46;23.93;55.47
68177;DHT22;56478;50.982;7.032;2022-08-26T00:41:12;23.92;54.80
68177;DHT22;56478;50.982;7.032;2022-08-26T00:43:37;23.90;55.14
68177;DHT22;56478;50.982;7.032;2022-08-26T00:46:07;23.98;55.43
68177;DHT22;56478;50.982;7.032;2022-08-26T00:48:33;23.90;56.64
68177;DHT22;56478;50.982;7.032;2022-08-26T00:51:02;23.97;56.59
68177;DHT22;56478;50.982;7.032;2022-08-26T00:53:29;24.00;57.89
68177;DHT22;56478;50.982;7.032;2022-08-26T00:55:58;23.96;58.22
68177;DHT22;56478;50.982;7.032;2022-08-26T00:58:26;23.96;58.34
68177;DHT22;56478;50.982;7.032;2022-08-26T01:00:52;23.90;58.92
68177;DHT22;56478;50.982;7.032;2022-08-26T01:03:18;23.90;59.56
68177;DHT22;56478;50.982;7.032;2022-08-26T01:05:46;23.93;59.29
68177;DHT22;56478;50.982;7.032;2022-08-26T01:08:12;23.90;60.06
68177;DHT22;56478;50.982;7.032;2022-08-26T01:10:37;23.80;61.05
68177;DHT22;56478;50.982;7.032;2022-08-26T01:13:04;23.80;61.57
68177;DHT22;56478;50.982;7.032;2022-08-26T01:15:31;23.81;61.58
68177;DHT22;56478;50.982;7.032;2022-08-26T01:17:58;23.76;62.40
68177;DHT22;56478;50.982;7.032;2022-08-26T01:22:56;23.77;62.77
68177;DHT22;56478;50.982;7.032;2022-08-26T01:25:23;23.69;63.59
68177;DHT22;56478;50.982;7.032;2022-08-26T01:27:49;23.66;64.13
68177;DHT22;56478;50.982;7.032;2022-08-26T01:30:15;23.69;64.22
68177;DHT22;56478;50.982;7.032;2022-08-26T01:32:40;23.66;64.83
68177;DHT22;56478;50.982;7.032;2022-08-26T01:35:06;23.58;65.72
68177;DHT22;56478;50.982;7.032;2022-08-26T01:37:33;23.63;65.72
68177;DHT22;56478;50.982;7.032;2022-08-26T01:40:00;23.63;66.07
68177;DHT22;56478;50.982;7.032;2022-08-26T01:42:26;23.66;66.38
68177;DHT22;56478;50.982;7.032;2022-08-26T01:45:07;23.66;66.61
68177;DHT22;56478;50.982;7.032;2022-08-26T01:47:34;23.60;67.42
68177;DHT22;56478;50.982;7.032;2022-08-26T01:50:01;23.60;67.63
68177;DHT22;56478;50.982;7.032;2022-08-26T01:52:28;23.56;68.28
68177;DHT22;56478;50.982;7.032;2022-08-26T01:54:54;23.51;68.37
68177;DHT22;56478;50.982;7.032;2022-08-26T01:57:21;23.56;68.47
68177;DHT22;56478;50.982;7.032;2022-08-26T01:59:47;23.49;68.85
68177;DHT22;56478;50.982;7.032;2022-08-26T02:02:13;23.43;69.33
68177;DHT22;56478;50.982;7.032;2022-08-26T02:04:41;23.49;69.27
68177;DHT22;56478;50.982;7.032;2022-08-26T02:07:09;23.45;69.46
68177;DHT22;56478;50.982;7.032;2022-08-26T02:09:38;23.39;69.89
68177;DHT22;56478;50.982;7.032;2022-08-26T02:12:04;23.37;70.38
68177;DHT22;56478;50.982;7.032;2022-08-26T02:14:32;23.42;70.13
68177;DHT22;56478;50.982;7.032;2022-08-26T02:16:58;23.29;70.63
68177;DHT22;56478;50.982;7.032;2022-08-26T02:19:26;23.19;71.18
68177;DHT22;56478;50.982;7.032;2022-08-26T02:21:52;23.32;70.71
68177;DHT22;56478;50.982;7.032;2022-08-26T02:24:21;23.32;70.66
68177;DHT22;56478;50.982;7.032;2022-08-26T02:26:47;23.21;71.04
68177;DHT22;56478;50.982;7.032;2022-08-26T02:29:22;23.17;71.56
68177;DHT22;56478;50.982;7.032;2022-08-26T02:31:48;23.17;71.51
68177;DHT22;56478;50.982;7.032;2022-08-26T02:34:17;23.19;71.54
68177;DHT22;56478;50.982;7.032;2022-08-26T02:36:43;23.19;71.37
68177;DHT22;56478;50.982;7.032;2022-08-26T02:39:09;23.15;71.56
68177;DHT22;56478;50.982;7.032;2022-08-26T02:41:34;23.11;71.65
68177;DHT22;56478;50.982;7.032;2022-08-26T02:44:00;23.04;71.89
68177;DHT22;56478;50.982;7.032;2022-08-26T02:46:25;23.11;71.67
68177;DHT22;56478;50.982;7.032;2022-08-26T02:48:51;23.10;71.97
68177;DHT22;56478;50.982;7.032;2022-08-26T02:51:16;23.03;72.05
68177;DHT22;56478;50.982;7.032;2022-08-26T02:53:42;23.08;71.92
68177;DHT22;56478;50.982;7.032;2022-08-26T02:56:07;23.10;71.92
68177;DHT22;56478;50.982;7.032;2022-08-26T02:58:33;23.03;72.09
68177;DHT22;56478;50.982;7.032;2022-08-26T03:00:59;22.97;72.18
68177;DHT22;56478;50.982;7.032;2022-08-26T03:03:24;22.97;72.36
68177;DHT22;56478;50.982;7.032;2022-08-26T03:05:50;22.87;72.77
68177;DHT22;56478;50.982;7.032;2022-08-26T03:08:16;22.90;72.70
68177;DHT22;56478;50.982;7.032;2022-08-26T03:10:41;22.91;72.61
68177;DHT22;56478;50.982;7.032;2022-08-26T03:13:07;22.84;73.01
68177;DHT22;56478;50.982;7.032;2022-08-26T03:15:32;22.82;73.12
68177;DHT22;56478;50.982;7.032;2022-08-26T03:17:57;22.89;73.19
68177;DHT22;56478;50.982;7.032;2022-08-26T03:20:23;22.80;73.11
68177;DHT22;56478;50.982;7.032;2022-08-26T03:22:48;22.82;73.19
68177;DHT22;56478;50.982;7.032;2022-08-26T03:25:17;22.83;73.02
68177;DHT22;56478;50.982;7.032;2022-08-26T03:27:43;22.79;73.37
68177;DHT22;56478;50.982;7.032;2022-08-26T03:30:09;22.66;73.62
68177;DHT22;56478;50.982;7.032;2022-08-26T03:32:53;22.86;73.17
68177;DHT22;56478;50.982;7.032;2022-08-26T03:35:18;22.80;73.34
68177;DHT22;56478;50.982;7.032;2022-08-26T03:37:44;22.89;73.37
68177;DHT22;56478;50.982;7.032;2022-08-26T03:40:09;22.91;73.06
68177;DHT22;56478;50.982;7.032;2022-08-26T03:42:36;22.86;73.21
68177;DHT22;56478;50.982;7.032;2022-08-26T03:45:03;22.93;73.13
68177;DHT22;56478;50.982;7.032;2022-08-26T03:47:29;22.90;73.17
68177;DHT22;56478;50.982;7.032;2022-08-26T03:49:55;23.00;72.95
68177;DHT22;56478;50.982;7.032;2022-08-26T03:52:21;22.98;72.90
68177;DHT22;56478;50.982;7.032;2022-08-26T03:54:46;23.04;73.00
68177;DHT22;56478;50.982;7.032;2022-08-26T03:57:11;23.04;72.89
68177;DHT22;56478;50.982;7.032;2022-08-26T03:59:37;23.11;72.66
68177;DHT22;56478;50.982;7.032;2022-08-26T04:02:02;23.18;72.63
68177;DHT22;56478;50.982;7.032;2022-08-26T04:04:28;23.10;72.78
68177;DHT22;56478;50.982;7.032;2022-08-26T04:06:57;23.17;72.48
68177;DHT22;56478;50.982;7.032;2022-08-26T04:09:22;23.19;72.54
68177;DHT22;56478;50.982;7.032;2022-08-26T04:11:48;23.19;72.48
68177;DHT22;56478;50.982;7.032;2022-08-26T04:14:15;23.24;72.28
68177;DHT22;56478;50.982;7.032;2022-08-26T04:16:41;23.26;72.24
68177;DHT22;56478;50.982;7.032;2022-08-26T04:19:07;23.25;72.18
68177;DHT22;56478;50.982;7.032;2022-08-26T04:21:33;23.21;72.52
68177;DHT22;56478;50.982;7.032;2022-08-26T04:23:59;23.29;72.32
68177;DHT22;56478;50.982;7.032;2022-08-26T04:26:24;23.31;72.63
68177;DHT22;56478;50.982;7.032;2022-08-26T04:28:51;23.29;72.37
68177;DHT22;56478;50.982;7.032;2022-08-26T04:31:16;23.31;72.15
68177;DHT22;56478;50.982;7.032;2022-08-26T04:33:42;23.32;72.35
68177;DHT22;56478;50.982;7.032;2022-08-26T04:36:08;23.32;72.54
68177;DHT22;56478;50.982;7.032;2022-08-26T04:38:33;23.37;72.27
68177;DHT22;56478;50.982;7.032;2022-08-26T04:40:59;23.24;72.43
68177;DHT22;56478;50.982;7.032;2022-08-26T04:43:25;23.25;72.17
68177;DHT22;56478;50.982;7.032;2022-08-26T04:46:00;23.42;71.88
68177;DHT22;56478;50.982;7.032;2022-08-26T04:48:30;23.43;71.90
68177;DHT22;56478;50.982;7.032;2022-08-26T04:50:56;23.46;72.12
68177;DHT22;56478;50.982;7.032;2022-08-26T04:53:22;23.48;71.99
68177;DHT22;56478;50.982;7.032;2022-08-26T04:55:48;23.46;71.73
68177;DHT22;56478;50.982;7.032;2022-08-26T04:58:14;23.45;71.83
68177;DHT22;56478;50.982;7.032;2022-08-26T05:00:41;23.49;71.69
68177;DHT22;56478;50.982;7.032;2022-08-26T05:03:07;23.51;71.69
68177;DHT22;56478;50.982;7.032;2022-08-26T05:05:32;23.51;71.49
68177;DHT22;56478;50.982;7.032;2022-08-26T05:07:58;23.59;71.44
68177;DHT22;56478;50.982;7.032;2022-08-26T05:10:23;23.56;71.37
68177;DHT22;56478;50.982;7.032;2022-08-26T05:12:48;23.55;71.37
68177;DHT22;56478;50.982;7.032;2022-08-26T05:15:14;23.48;71.33
68177;DHT22;56478;50.982;7.032;2022-08-26T05:17:39;23.55;71.24
68177;DHT22;56478;50.982;7.032;2022-08-26T05:20:05;23.63;71.06
68177;DHT22;56478;50.982;7.032;2022-08-26T05:22:30;23.66;71.08
68177;DHT22;56478;50.982;7.032;2022-08-26T05:24:56;23.52;71.37
68177;DHT22;56478;50.982;7.032;2022-08-26T05:27:21;23.55;71.24
68177;DHT22;56478;50.982;7.032;2022-08-26T05:29:47;23.60;71.18
68177;DHT22;56478;50.982;7.032;2022-08-26T05:32:12;23.58;71.39
68177;DHT22;56478;50.982;7.032;2022-08-26T05:34:37;23.59;71.46
68177;DHT22;56478;50.982;7.032;2022-08-26T05:37:04;23.58;71.27
68177;DHT22;56478;50.982;7.032;2022-08-26T05:39:30;23.65;71.13
68177;DHT22;56478;50.982;7.032;2022-08-26T05:41:56;23.62;71.45
68177;DHT22;56478;50.982;7.032;2022-08-26T05:44:21;23.74;71.01
68177;DHT22;56478;50.982;7.032;2022-08-26T05:46:46;23.77;71.92
68177;DHT22;56478;50.982;7.032;2022-08-26T05:49:12;24.33;71.62
68177;DHT22;56478;50.982;7.032;2022-08-26T05:51:39;24.18;69.97
68177;DHT22;56478;50.982;7.032;2022-08-26T05:54:04;24.08;69.50
68177;DHT22;56478;50.982;7.032;2022-08-26T05:56:31;23.93;70.81
68177;DHT22;56478;50.982;7.032;2022-08-26T05:58:56;23.94;70.50
68177;DHT22;56478;50.982;7.032;2022-08-26T06:01:23;23.81;70.63
68177;DHT22;56478;50.982;7.032;2022-08-26T06:03:53;23.88;70.98
68177;DHT22;56478;50.982;7.032;2022-08-26T06:06:20;23.90;70.70
68177;DHT22;56478;50.982;7.032;2022-08-26T06:08:46;23.88;71.27
68177;DHT22;56478;50.982;7.032;2022-08-26T06:11:12;23.90;70.87
68177;DHT22;56478;50.982;7.032;2022-08-26T06:13:38;23.78;70.80
68177;DHT22;56478;50.982;7.032;2022-08-26T06:16:05;23.81;71.29
68177;DHT22;56478;50.982;7.032;2022-08-26T06:18:32;23.78;71.23
68177;DHT22;56478;50.982;7.032;2022-08-26T06:21:01;23.73;71.01
68177;DHT22;56478;50.982;7.032;2022-08-26T06:23:34;23.76;71.13
68177;DHT22;56478;50.982;7.032;2022-08-26T06:26:21;23.84;70.48
68177;DHT22;56478;50.982;7.032;2022-08-26T06:28:49;23.83;70.70
68177;DHT22;56478;50.982;7.032;2022-08-26T06:31:15;23.78;70.81
68177;DHT22;56478;50.982;7.032;2022-08-26T06:33:41;23.86;70.45
68177;DHT22;56478;50.982;7.032;2022-08-26T06:36:07;23.84;70.42
68177;DHT22;56478;50.982;7.032;2022-08-26T06:38:32;23.78;70.16
68177;DHT22;56478;50.982;7.032;2022-08-26T06:40:58;23.87;70.32
68177;DHT22;56478;50.982;7.032;2022-08-26T06:43:25;23.92;70.47
68177;DHT22;56478;50.982;7.032;2022-08-26T06:45:51;23.88;70.01
68177;DHT22;56478;50.982;7.032;2022-08-26T06:48:17;23.96;70.06
68177;DHT22;56478;50.982;7.032;2022-08-26T06:50:43;23.93;70.14
68177;DHT22;56478;50.982;7.032;2022-08-26T06:53:09;23.98;70.08
68177;DHT22;56478;50.982;7.032;2022-08-26T06:55:41;24.05;69.67
68177;DHT22;56478;50.982;7.032;2022-08-26T06:58:07;24.05;69.68
68177;DHT22;56478;50.982;7.032;2022-08-26T07:00:33;24.11;69.40
68177;DHT22;56478;50.982;7.032;2022-08-26T07:03:00;24.20;69.46
68177;DHT22;56478;50.982;7.032;2022-08-26T07:05:26;24.18;69.25
68177;DHT22;56478;50.982;7.032;2022-08-26T07:07:51;24.22;69.33
68177;DHT22;56478;50.982;7.032;2022-08-26T07:10:16;24.29;68.59
68177;DHT22;56478;50.982;7.032;2022-08-26T07:12:42;24.25;69.03
68177;DHT22;56478;50.982;7.032;2022-08-26T07:15:07;24.12;69.34
68177;DHT22;56478;50.982;7.032;2022-08-26T07:17:33;24.00;69.45
68177;DHT22;56478;50.982;7.032;2022-08-26T07:19:58;23.96;69.79
68177;DHT22;56478;50.982;7.032;2022-08-26T07:22:24;24.01;69.56
68177;DHT22;56478;50.982;7.032;2022-08-26T07:24:49;23.94;69.97
68177;DHT22;56478;50.982;7.032;2022-08-26T07:27:15;24.05;69.94
68177;DHT22;56478;50.982;7.032;2022-08-26T07:29:40;24.14;69.64
68177;DHT22;56478;50.982;7.032;2022-08-26T07:32:09;23.96;70.28
68177;DHT22;56478;50.982;7.032;2022-08-26T07:34:35;23.92;69.52
68177;DHT22;56478;50.982;7.032;2022-08-26T07:37:02;24.11;69.47
68177;DHT22;56478;50.982;7.032;2022-08-26T07:39:27;24.08;69.49
68177;DHT22;56478;50.982;7.032;2022-08-26T07:41:54;24.10;69.27
68177;DHT22;56478;50.982;7.032;2022-08-26T07:44:19;24.26;69.43
68177;DHT22;56478;50.982;7.032;2022-08-26T07:46:45;24.29;69.58
68177;DHT22;56478;50.982;7.032;2022-08-26T07:49:10;24.24;69.37
68177;DHT22;56478;50.982;7.032;2022-08-26T07:51:36;24.28;69.50
68177;DHT22;56478;50.982;7.032;2022-08-26T07:54:02;24.35;69.20
68177;DHT22;56478;50.982;7.032;2022-08-26T07:56:27;24.32;69.17
68177;DHT22;56478;50.982;7.032;2022-08-26T07:58:53;24.20;69.23
68177;DHT22;56478;50.982;7.032;2022-08-26T08:01:19;24.14;69.38
68177;DHT22;56478;50.982;7.032;2022-08-26T08:03:45;24.32;67.97
68177;DHT22;56478;50.982;7.032;2022-08-26T08:06:10;24.29;69.18
68177;DHT22;56478;50.982;7.032;2022-08-26T08:08:36;24.35;68.51
68177;DHT22;56478;50.982;7.032;2022-08-26T08:11:01;24.42;68.21
68177;DHT22;56478;50.982;7.032;2022-08-26T08:13:27;24.46;67.48
68177;DHT22;56478;50.982;7.032;2022-08-26T08:15:53;24.33;67.65
68177;DHT22;56478;50.982;7.032;2022-08-26T08:18:18;24.28;68.69
68177;DHT22;56478;50.982;7.032;2022-08-26T08:20:44;24.21;68.44
68177;DHT22;56478;50.982;7.032;2022-08-26T08:23:09;24.15;67.72
68177;DHT22;56478;50.982;7.032;2022-08-26T08:25:35;24.28;70.11
68177;DHT22;56478;50.982;7.032;2022-08-26T08:28:00;24.20;69.86
68177;DHT22;56478;50.982;7.032;2022-08-26T08:30:26;24.21;69.69
68177;DHT22;56478;50.982;7.032;2022-08-26T08:32:52;24.20;68.96
68177;DHT22;56478;50.982;7.032;2022-08-26T08:35:17;24.28;69.31
68177;DHT22;56478;50.982;7.032;2022-08-26T08:37:46;24.38;69.88
68177;DHT22;56478;50.982;7.032;2022-08-26T08:40:13;24.28;68.17
68177;DHT22;56478;50.982;7.032;2022-08-26T08:42:55;24.28;67.97
68177;DHT22;56478;50.982;7.032;2022-08-26T08:45:37;24.36;68.40
68177;DHT22;56478;50.982;7.032;2022-08-26T08:48:15;24.39;69.40
68177;DHT22;56478;50.982;7.032;2022-08-26T08:50:49;24.45;69.36
68177;DHT22;56478;50.982;7.032;2022-08-26T08:53:17;24.49;68.83
68177;DHT22;56478;50.982;7.032;2022-08-26T08:58:18;24.46;67.39
68177;DHT22;56478;50.982;7.032;2022-08-26T09:00:47;24.51;67.24
68177;DHT22;56478;50.982;7.032;2022-08-26T09:03:35;24.42;68.01
68177;DHT22;56478;50.982;7.032;2022-08-26T09:06:02;24.33;68.85
68177;DHT22;56478;50.982;7.032;2022-08-26T09:08:29;24.28;67.73
68177;DHT22;56478;50.982;7.032;2022-08-26T09:10:56;24.28;67.75
68177;DHT22;56478;50.982;7.032;2022-08-26T09:13:23;24.35;67.48
68177;DHT22;56478;50.982;7.032;2022-08-26T09:16:02;24.55;67.76
68177;DHT22;56478;50.982;7.032;2022-08-26T09:18:50;24.55;67.05
68177;DHT22;56478;50.982;7.032;2022-08-26T09:21:18;24.46;67.68
68177;DHT22;56478;50.982;7.032;2022-08-26T09:23:44;24.46;68.09
68177;DHT22;56478;50.982;7.032;2022-08-26T09:28:39;24.35;68.04
68177;DHT22;56478;50.982;7.032;2022-08-26T09:31:12;24.40;69.44
68177;DHT22;56478;50.982;7.032;2022-08-26T09:33:38;24.45;68.43
68177;DHT22;56478;50.982;7.032;2022-08-26T09:36:14;24.49;66.92
68177;DHT22;56478;50.982;7.032;2022-08-26T09:38:41;24.43;67.97
68177;DHT22;56478;50.982;7.032;2022-08-26T09:41:18;24.49;67.05
68177;DHT22;56478;50.982;7.032;2022-08-26T09:43:53;24.67;67.92
68177;DHT22;56478;50.982;7.032;2022-08-26T09:46:29;24.74;66.34
68177;DHT22;56478;50.982;7.032;2022-08-26T09:48:55;24.95;65.22
68177;DHT22;56478;50.982;7.032;2022-08-26T09:53:51;24.98;64.32
68177;DHT22;56478;50.982;7.032;2022-08-26T09:58:46;24.92;64.65
68177;DHT22;56478;50.982;7.032;2022-08-26T10:01:31;25.01;65.00
68177;DHT22;56478;50.982;7.032;2022-08-26T10:04:07;25.04;63.66
68177;DHT22;56478;50.982;7.032;2022-08-26T10:06:53;25.14;63.03
68177;DHT22;56478;50.982;7.032;2022-08-26T10:09:19;25.41;62.20
68177;DHT22;56478;50.982;7.032;2022-08-26T10:11:45;25.29;61.55
68177;DHT22;56478;50.982;7.032;2022-08-26T10:19:09;25.66;60.70
68177;DHT22;56478;50.982;7.032;2022-08-26T10:21:37;25.70;60.56
68177;DHT22;56478;50.982;7.032;2022-08-26T10:24:05;25.63;60.87
68177;DHT22;56478;50.982;7.032;2022-08-26T10:26:39;25.83;60.13
68177;DHT22;56478;50.982;7.032;2022-08-26T10:29:15;25.88;60.70
68177;DHT22;56478;50.982;7.032;2022-08-26T10:32:03;25.88;60.27
68177;DHT22;56478;50.982;7.032;2022-08-26T10:34:31;25.76;60.40
68177;DHT22;56478;50.982;7.032;2022-08-26T10:37:07;25.77;60.42
68177;DHT22;56478;50.982;7.032;2022-08-26T10:39:36;25.86;60.08
68177;DHT22;56478;50.982;7.032;2022-08-26T10:42:04;25.91;59.53
68177;DHT22;56478;50.982;7.032;2022-08-26T10:44:31;25.95;59.58
68177;DHT22;56478;50.982;7.032;2022-08-26T10:47:02;26.04;59.04
68177;DHT22;56478;50.982;7.032;2022-08-26T10:49:29;26.06;58.95
68177;DHT22;56478;50.982;7.032;2022-08-26T10:52:02;26.21;58.03
68177;DHT22;56478;50.982;7.032;2022-08-26T10:54:35;26.20;58.21
68177;DHT22;56478;50.982;7.032;2022-08-26T11:05:37;26.67;57.38
68177;DHT22;56478;50.982;7.032;2022-08-26T11:13:08;27.31;54.97
68177;DHT22;56478;50.982;7.032;2022-08-26T11:18:05;27.39;54.75
68177;DHT22;56478;50.982;7.032;2022-08-26T11:33:45;27.08;55.48
68177;DHT22;56478;50.982;7.032;2022-08-26T11:38:55;27.28;54.93
68177;DHT22;56478;50.982;7.032;2022-08-26T11:41:21;27.36;54.55
68177;DHT22;56478;50.982;7.032;2022-08-26T11:43:53;27.34;54.97
68177;DHT22;56478;50.982;7.032;2022-08-26T11:46:23;27.07;55.45
68177;DHT22;56478;50.982;7.032;2022-08-26T11:48:49;27.09;55.56
68177;DHT22;56478;50.982;7.032;2022-08-26T11:53:44;26.83;56.12
68177;DHT22;56478;50.982;7.032;2022-08-26T11:56:31;26.69;56.64
68177;DHT22;56478;50.982;7.032;2022-08-26T11:58:59;26.40;57.28
68177;DHT22;56478;50.982;7.032;2022-08-26T12:01:28;26.50;56.88
68177;DHT22;56478;50.982;7.032;2022-08-26T12:03:53;26.49;57.66
68177;DHT22;56478;50.982;7.032;2022-08-26T12:06:29;26.57;56.94
68177;DHT22;56478;50.982;7.032;2022-08-26T12:08:56;26.61;57.08
68177;DHT22;56478;50.982;7.032;2022-08-26T12:11:30;26.38;57.53
68177;DHT22;56478;50.982;7.032;2022-08-26T12:14:03;26.26;58.01
68177;DHT22;56478;50.982;7.032;2022-08-26T12:16:30;26.26;58.06
68177;DHT22;56478;50.982;7.032;2022-08-26T12:18:57;26.28;57.12
68177;DHT22;56478;50.982;7.032;2022-08-26T12:21:26;26.38;57.51
68177;DHT22;56478;50.982;7.032;2022-08-26T12:23:57;26.53;56.80
68177;DHT22;56478;50.982;7.032;2022-08-26T12:26:27;26.67;56.79
68177;DHT22;56478;50.982;7.032;2022-08-26T12:31:20;26.97;56.37
68177;DHT22;56478;50.982;7.032;2022-08-26T12:33:47;27.02;54.98
68177;DHT22;56478;50.982;7.032;2022-08-26T12:36:12;27.15;54.88
68177;DHT22;56478;50.982;7.032;2022-08-26T12:38:41;27.02;56.33
68177;DHT22;56478;50.982;7.032;2022-08-26T12:41:06;26.86;56.01
68177;DHT22;56478;50.982;7.032;2022-08-26T12:43:39;26.95;56.42
68177;DHT22;56478;50.982;7.032;2022-08-26T12:46:05;27.02;55.56
68177;DHT22;56478;50.982;7.032;2022-08-26T12:48:32;27.22;55.65
68177;DHT22;56478;50.982;7.032;2022-08-26T12:50:59;27.26;54.51
68177;DHT22;56478;50.982;7.032;2022-08-26T12:53:29;27.25;54.27
68177;DHT22;56478;50.982;7.032;2022-08-26T12:55:56;27.14;53.99
68177;DHT22;56478;50.982;7.032;2022-08-26T13:08:50;26.69;56.73
68177;DHT22;56478;50.982;7.032;2022-08-26T13:13:45;26.52;57.03
68177;DHT22;56478;50.982;7.032;2022-08-26T13:16:11;26.57;56.12
68177;DHT22;56478;50.982;7.032;2022-08-26T13:18:36;26.55;56.83
68177;DHT22;56478;50.982;7.032;2022-08-26T13:21:10;26.70;55.90
68177;DHT22;56478;50.982;7.032;2022-08-26T13:23:35;26.86;55.09
68177;DHT22;56478;50.982;7.032;2022-08-26T13:26:00;26.94;54.08
68177;DHT22;56478;50.982;7.032;2022-08-26T13:28:26;26.95;54.74
68177;DHT22;56478;50.982;7.032;2022-08-26T13:30:51;26.86;55.10
68177;DHT22;56478;50.982;7.032;2022-08-26T13:33:17;26.87;55.28
68177;DHT22;56478;50.982;7.032;2022-08-26T13:35:42;26.83;56.00
68177;DHT22;56478;50.982;7.032;2022-08-26T13:38:08;26.79;56.68
68177;DHT22;56478;50.982;7.032;2022-08-26T13:40:39;26.50;57.38
68177;DHT22;56478;50.982;7.032;2022-08-26T13:43:04;26.50;57.89
68177;DHT22;56478;50.982;7.032;2022-08-26T13:45:30;26.40;58.19
68177;DHT22;56478;50.982;7.032;2022-08-26T13:47:55;26.29;58.23
68177;DHT22;56478;50.982;7.032;2022-08-26T13:50:22;26.36;58.43
68177;DHT22;56478;50.982;7.032;2022-08-26T13:52:47;26.21;58.94
68177;DHT22;56478;50.982;7.032;2022-08-26T13:55:13;26.20;58.45
68177;DHT22;56478;50.982;7.032;2022-08-26T13:57:38;26.20;58.77
68177;DHT22;56478;50.982;7.032;2022-08-26T14:00:04;26.09;60.06
68177;DHT22;56478;50.982;7.032;2022-08-26T14:02:29;26.22;58.08
68177;DHT22;56478;50.982;7.032;2022-08-26T14:04:55;26.12;58.14
68177;DHT22;56478;50.982;7.032;2022-08-26T14:07:20;26.09;59.06
68177;DHT22;56478;50.982;7.032;2022-08-26T14:09:46;26.05;58.21
68177;DHT22;56478;50.982;7.032;2022-08-26T14:12:11;26.05;58.69
68177;DHT22;56478;50.982;7.032;2022-08-26T14:14:36;26.01;59.10
68177;DHT22;56478;50.982;7.032;2022-08-26T14:17:02;25.80;59.52
68177;DHT22;56478;50.982;7.032;2022-08-26T14:19:28;25.84;59.78
68177;DHT22;56478;50.982;7.032;2022-08-26T14:21:54;25.77;59.79
68177;DHT22;56478;50.982;7.032;2022-08-26T14:24:20;25.78;59.62
68177;DHT22;56478;50.982;7.032;2022-08-26T14:26:45;25.71;60.21
68177;DHT22;56478;50.982;7.032;2022-08-26T14:29:12;25.65;60.18
68177;DHT22;56478;50.982;7.032;2022-08-26T14:31:38;25.66;60.88
68177;DHT22;56478;50.982;7.032;2022-08-26T14:34:04;25.63;60.37
68177;DHT22;56478;50.982;7.032;2022-08-26T14:36:31;25.77;60.47
68177;DHT22;56478;50.982;7.032;2022-08-26T14:38:58;25.60;60.61
68177;DHT22;56478;50.982;7.032;2022-08-26T14:41:24;25.67;60.61
68177;DHT22;56478;50.982;7.032;2022-08-26T14:43:55;25.62;61.55
68177;DHT22;56478;50.982;7.032;2022-08-26T14:46:24;25.76;60.57
68177;DHT22;56478;50.982;7.032;2022-08-26T14:48:53;25.70;60.50
68177;DHT22;56478;50.982;7.032;2022-08-26T14:51:18;25.74;61.05
68177;DHT22;56478;50.982;7.032;2022-08-26T14:53:46;25.80;60.60
68177;DHT22;56478;50.982;7.032;2022-08-26T14:56:30;25.91;59.61
68177;DHT22;56478;50.982;7.032;2022-08-26T14:58:57;25.93;59.70
68177;DHT22;56478;50.982;7.032;2022-08-26T15:01:22;25.70;61.03
68177;DHT22;56478;50.982;7.032;2022-08-26T15:03:47;25.69;60.30
68177;DHT22;56478;50.982;7.032;2022-08-26T15:06:13;25.74;60.79
68177;DHT22;56478;50.982;7.032;2022-08-26T15:08:39;25.81;59.88
68177;DHT22;56478;50.982;7.032;2022-08-26T15:11:04;25.91;59.77
68177;DHT22;56478;50.982;7.032;2022-08-26T15:13:30;26.09;59.17
68177;DHT22;56478;50.982;7.032;2022-08-26T15:15:55;26.26;58.78
68177;DHT22;56478;50.982;7.032;2022-08-26T15:18:21;26.26;58.61
68177;DHT22;56478;50.982;7.032;2022-08-26T15:20:46;26.42;58.29
68177;DHT22;56478;50.982;7.032;2022-08-26T15:23:12;26.52;58.35
68177;DHT22;56478;50.982;7.032;2022-08-26T15:25:37;26.67;57.12
68177;DHT22;56478;50.982;7.032;2022-08-26T15:28:03;26.46;58.39
68177;DHT22;56478;50.982;7.032;2022-08-26T15:30:28;26.42;58.72
68177;DHT22;56478;50.982;7.032;2022-08-26T15:32:53;26.38;58.67
68177;DHT22;56478;50.982;7.032;2022-08-26T15:35:19;26.39;57.94
68177;DHT22;56478;50.982;7.032;2022-08-26T15:37:44;26.38;57.91
68177;DHT22;56478;50.982;7.032;2022-08-26T15:40:10;26.18;57.87
68177;DHT22;56478;50.982;7.032;2022-08-26T15:42:35;26.11;58.02
68177;DHT22;56478;50.982;7.032;2022-08-26T15:45:01;26.15;58.10
68177;DHT22;56478;50.982;7.032;2022-08-26T15:47:26;26.15;57.71
68177;DHT22;56478;50.982;7.032;2022-08-26T15:49:52;26.26;57.96
68177;DHT22;56478;50.982;7.032;2022-08-26T15:52:17;26.45;57.25
68177;DHT22;56478;50.982;7.032;2022-08-26T15:54:43;26.24;57.80
68177;DHT22;56478;50.982;7.032;2022-08-26T15:57:08;26.33;56.61
68177;DHT22;56478;50.982;7.032;2022-08-26T15:59:34;26.24;57.76
68177;DHT22;56478;50.982;7.032;2022-08-26T16:01:59;26.18;57.39
68177;DHT22;56478;50.982;7.032;2022-08-26T16:04:25;26.02;57.74
68177;DHT22;56478;50.982;7.032;2022-08-26T16:06:51;26.01;57.65
68177;DHT22;56478;50.982;7.032;2022-08-26T16:09:21;25.95;58.38
68177;DHT22;56478;50.982;7.032;2022-08-26T16:11:47;25.97;57.54
68177;DHT22;56478;50.982;7.032;2022-08-26T16:14:12;25.95;57.87
68177;DHT22;56478;50.982;7.032;2022-08-26T16:16:38;25.88;58.32
68177;DHT22;56478;50.982;7.032;2022-08-26T16:19:04;25.60;58.27
68177;DHT22;56478;50.982;7.032;2022-08-26T16:21:30;25.50;58.57
68177;DHT22;56478;50.982;7.032;2022-08-26T16:23:56;25.54;58.58
68177;DHT22;56478;50.982;7.032;2022-08-26T16:26:26;25.46;58.64
68177;DHT22;56478;50.982;7.032;2022-08-26T16:28:52;25.43;58.46
68177;DHT22;56478;50.982;7.032;2022-08-26T16:31:18;25.60;58.11
68177;DHT22;56478;50.982;7.032;2022-08-26T16:33:43;25.62;58.90
68177;DHT22;56478;50.982;7.032;2022-08-26T16:36:10;25.63;58.61
68177;DHT22;56478;50.982;7.032;2022-08-26T16:38:36;25.47;59.00